Time;durP1;ratioP1;P1;durP2;ratioP2;P2;SDS_P1;SDS_P2;PMS_P1;PMS_P2;Temp;Humidity;BMP_temperature;BMP_pressure;BME280_temperature;BME280_humidity;BME280_pressure;Samples;Min_cycle;Max_cycle;Signal;HPM_P1;HPM_P2
2021/03/27 00:00:36;;;;;;;5.05;2.90;;;8.40;78.40;;;;;;5073554;28;20075;-74
2021/03/27 00:03:37;;;;;;;4.65;2.70;;;8.40;78.30;;;;;;5073824;28;20024;-73
2021/03/27 00:06:12;;;;;;;2.80;2.60;;;8.30;78.30;;;;;;5073201;28;20041;-74
2021/03/27 00:08:52;;;;;;;3.17;2.67;;;8.30;78.40;;;;;;5073580;28;20488;-73
2021/03/27 00:11:54;;;;;;;4.35;2.72;;;8.20;78.40;;;;;;5073393;28;20033;-73
2021/03/27 00:14:58;;;;;;;6.10;2.58;;;8.20;78.60;;;;;;5071423;28;20440;-73
2021/03/27 00:17:40;;;;;;;;;;;8.10;78.70;;;;;;5073242;28;20044;-73
2021/03/27 00:20:24;;;;;;;2.90;2.63;;;8.20;78.80;;;;;;5073218;28;19966;-74
2021/03/27 00:22:59;;;;;;;3.42;2.25;;;8.10;78.90;;;;;;5071973;28;20029;-73
2021/03/27 00:25:30;;;;;;;2.25;2.05;;;8.10;79.00;;;;;;5071799;28;20029;-73
2021/03/27 00:28:14;;;;;;;2.00;1.80;;;8.00;79.00;;;;;;5073193;28;20051;-73
2021/03/27 00:30:46;;;;;;;2.63;1.42;;;8.00;79.00;;;;;;5071928;28;20064;-73
2021/03/27 00:33:12;;;;;;;2.90;1.70;;;8.00;79.00;;;;;;5071897;28;20016;-73
2021/03/27 00:35:54;;;;;;;1.98;1.70;;;8.00;79.10;;;;;;5071885;28;20055;-73
2021/03/27 00:38:23;;;;;;;1.98;1.20;;;8.00;79.10;;;;;;5071913;28;20035;-73
2021/03/27 00:40:51;;;;;;;3.15;1.40;;;8.00;79.20;;;;;;5073062;28;20127;-73
2021/03/27 00:43:25;;;;;;;3.17;1.30;;;8.00;79.50;;;;;;5071623;28;20021;-73
2021/03/27 00:45:55;;;;;;;2.08;1.40;;;7.90;79.40;;;;;;5071773;28;20032;-74
2021/03/27 00:48:31;;;;;;;6.22;2.83;;;7.90;79.40;;;;;;5073028;28;20035;-73
2021/03/27 00:51:11;;;;;;;4.10;1.58;;;7.90;79.30;;;;;;5073069;28;20032;-73
2021/03/27 00:53:53;;;;;;;2.58;1.38;;;7.90;79.30;;;;;;5073027;28;20051;-73
2021/03/27 00:56:19;;;;;;;1.98;0.95;;;8.00;79.40;;;;;;5073003;28;20039;-73
2021/03/27 00:58:50;;;;;;;5.82;3.30;;;8.00;79.20;;;;;;5071715;28;20036;-73
2021/03/27 01:01:19;;;;;;;2.72;1.60;;;8.10;79.20;;;;;;5071538;28;20025;-73
2021/03/27 01:03:52;;;;;;;1.95;1.00;;;8.10;79.10;;;;;;5071682;28;20029;-73
2021/03/27 01:06:38;;;;;;;1.33;1.02;;;8.10;78.90;;;;;;5073192;28;20029;-73
2021/03/27 01:09:06;;;;;;;1.50;0.70;;;8.20;78.90;;;;;;5073146;28;20036;-73
2021/03/27 01:11:46;;;;;;;1.80;1.02;;;8.10;78.80;;;;;;5072668;28;20036;-73
2021/03/27 01:14:20;;;;;;;1.67;0.82;;;8.20;78.80;;;;;;5071442;28;20119;-73
2021/03/27 01:16:51;;;;;;;1.40;1.10;;;8.20;78.80;;;;;;5072707;28;20044;-73
2021/03/27 01:19:25;;;;;;;1.50;1.33;;;8.20;78.70;;;;;;5072581;28;20054;-73
2021/03/27 01:21:54;;;;;;;2.35;1.67;;;8.20;78.60;;;;;;5072745;28;20452;-73
2021/03/27 01:24:26;;;;;;;3.67;1.85;;;8.20;78.60;;;;;;5072810;28;20120;-73
2021/03/27 01:27:01;;;;;;;3.47;2.30;;;8.20;78.60;;;;;;5075278;28;20025;-73
2021/03/27 01:29:39;;;;;;;4.07;2.30;;;8.30;78.60;;;;;;5075180;28;20115;-73
2021/03/27 01:32:08;;;;;;;3.53;2.63;;;8.30;78.50;;;;;;5076480;28;20032;-73
2021/03/27 01:34:50;;;;;;;5.20;2.50;;;8.30;78.50;;;;;;5074855;28;20051;-73
2021/03/27 01:37:33;;;;;;;4.38;2.92;;;8.30;78.50;;;;;;5076642;28;20097;-73
2021/03/27 01:40:26;;;;;;;4.65;3.33;;;8.30;78.50;;;;;;5076302;28;20454;-73
2021/03/27 01:43:23;;;;;;;4.32;2.80;;;8.30;78.50;;;;;;5074852;28;20451;-73
2021/03/27 01:46:03;;;;;;;4.45;2.88;;;8.30;78.60;;;;;;5075536;28;20060;-73
2021/03/27 01:49:06;;;;;;;4.45;3.53;;;8.30;78.60;;;;;;5076108;28;20031;-73
2021/03/27 01:52:03;;;;;;;3.38;3.00;;;8.30;78.60;;;;;;5074580;28;20024;-74
2021/03/27 01:54:47;;;;;;;4.68;3.35;;;8.30;78.50;;;;;;5074110;28;20039;-73
2021/03/27 01:57:33;;;;;;;6.63;4.40;;;8.30;78.50;;;;;;5074538;28;20033;-73
2021/03/27 02:00:14;;;;;;;6.55;5.00;;;8.30;78.60;;;;;;5074572;28;20043;-73
2021/03/27 02:03:03;;;;;;;6.13;4.95;;;8.30;78.60;;;;;;5074747;28;20016;-73
2021/03/27 02:05:43;;;;;;;6.85;5.03;;;8.20;78.60;;;;;;5075763;28;20586;-73
2021/03/27 02:08:30;;;;;;;8.52;5.40;;;8.20;78.70;;;;;;5074580;28;20024;-73
2021/03/27 02:11:13;;;;;;;8.50;5.70;;;8.20;78.90;;;;;;5075775;28;20054;-73
2021/03/27 02:13:48;;;;;;;10.60;6.55;;;8.10;78.90;;;;;;5074731;28;20402;-73
2021/03/27 02:16:34;;;;;;;9.10;6.10;;;8.10;79.20;;;;;;5075734;28;20039;-73
2021/03/27 02:19:12;;;;;;;8.35;5.80;;;8.00;79.30;;;;;;5075607;28;20031;-73
2021/03/27 02:22:06;;;;;;;8.40;5.50;;;8.00;79.30;;;;;;5075632;28;20031;-73
2021/03/27 02:24:38;;;;;;;;;;;8.00;79.30;;;;;;5073922;28;20082;-73
2021/03/27 02:27:29;;;;;;;13.95;7.57;;;8.00;79.30;;;;;;5074373;28;19904;-73
2021/03/27 02:30:19;;;;;;;9.70;6.75;;;8.10;79.40;;;;;;5074238;28;20025;-73
2021/03/27 02:33:00;;;;;;;9.15;6.20;;;8.00;79.40;;;;;;5074074;28;20032;-73
2021/03/27 02:35:34;;;;;;;9.68;5.60;;;7.90;79.80;;;;;;5073868;28;20115;-73
2021/03/27 02:38:26;;;;;;;5.45;4.90;;;7.80;80.20;;;;;;5074688;28;20033;-73
2021/03/27 02:41:16;;;;;;;9.07;5.43;;;7.60;80.70;;;;;;5074339;28;20097;-73
2021/03/27 02:43:49;;;;;;;7.78;5.68;;;7.50;80.70;;;;;;5073923;28;20123;-73
2021/03/27 02:46:29;;;;;;;7.20;6.20;;;7.30;81.00;;;;;;5075182;28;20020;-73
2021/03/27 02:49:29;;;;;;;10.35;6.43;;;7.20;81.40;;;;;;5075220;28;20048;-73
2021/03/27 02:52:19;;;;;;;8.32;6.15;;;7.20;82.00;;;;;;5073690;28;20024;-73
2021/03/27 02:55:11;;;;;;;12.63;6.93;;;7.10;82.00;;;;;;5075343;28;20120;-73
2021/03/27 02:57:43;;;;;;;9.93;6.05;;;7.10;82.10;;;;;;5075040;28;20031;-73
2021/03/27 03:00:20;;;;;;;15.07;6.57;;;7.10;82.30;;;;;;5074849;28;20395;-73
2021/03/27 03:02:55;;;;;;;10.00;6.10;;;7.20;82.50;;;;;;5075099;28;20028;-73
2021/03/27 03:05:50;;;;;;;7.97;6.38;;;7.20;82.30;;;;;;5074797;28;20085;-73
2021/03/27 03:08:21;;;;;;;11.63;6.05;;;7.30;82.50;;;;;;5073537;28;20044;-73
2021/03/27 03:11:09;;;;;;;8.30;5.68;;;7.30;82.30;;;;;;5073612;28;20078;-73
2021/03/27 03:13:41;;;;;;;13.15;7.18;;;7.30;82.40;;;;;;5074788;28;20426;-73
2021/03/27 03:16:28;;;;;;;9.70;6.15;;;7.30;82.40;;;;;;5074762;28;20079;-73
2021/03/27 03:19:23;;;;;;;8.52;6.18;;;7.30;82.40;;;;;;5073073;28;20021;-73
2021/03/27 03:22:19;;;;;;;6.70;5.47;;;7.30;82.60;;;;;;5074410;28;20031;-73
2021/03/27 03:25:00;;;;;;;9.52;5.32;;;7.30;82.40;;;;;;5072990;28;20012;-73
2021/03/27 03:28:07;;;;;;;10.05;5.22;;;7.20;82.40;;;;;;5073045;28;20048;-73
2021/03/27 03:30:42;;;;;;;8.60;4.80;;;7.30;82.40;;;;;;5074177;28;20028;-73
2021/03/27 03:33:14;;;;;;;7.78;5.47;;;7.30;82.20;;;;;;5072877;28;20054;-73
2021/03/27 03:36:00;;;;;;;11.07;5.55;;;7.40;82.20;;;;;;5074092;28;20056;-73
2021/03/27 03:38:49;;;;;;;11.32;4.97;;;7.40;82.10;;;;;;5073993;28;20029;-73
2021/03/27 03:41:20;;;;;;;9.82;4.90;;;7.40;82.20;;;;;;5072639;28;20411;-73
2021/03/27 03:43:57;;;;;;;7.95;4.60;;;7.40;81.90;;;;;;5073999;28;20027;-73
2021/03/27 03:46:31;;;;;;;10.40;5.70;;;7.50;81.90;;;;;;5073976;28;20027;-73
2021/03/27 03:49:30;;;;;;;9.48;5.15;;;7.50;81.80;;;;;;5071614;28;20070;-73
2021/03/27 03:52:15;;;;;;;12.75;6.18;;;7.60;81.80;;;;;;5072434;28;20030;-73
2021/03/27 03:54:41;;;;;;;14.32;6.60;;;7.60;81.70;;;;;;5073883;28;20020;-73
2021/03/27 03:57:42;;;;;;;12.52;6.32;;;7.60;81.60;;;;;;5073853;28;20035;-73
2021/03/27 04:00:17;;;;;;;10.68;6.65;;;7.60;81.60;;;;;;5072871;28;20025;-73
2021/03/27 04:02:49;;;;;;;9.77;6.28;;;7.60;81.50;;;;;;5073529;28;20032;-72
2021/03/27 04:05:31;;;;;;;9.02;6.00;;;7.60;81.40;;;;;;5073529;28;20016;-73
2021/03/27 04:08:14;;;;;;;14.10;6.90;;;7.60;81.40;;;;;;5072180;28;20020;-73
2021/03/27 04:10:41;;;;;;;8.77;6.07;;;7.60;81.40;;;;;;5072204;28;20029;-73
2021/03/27 04:13:25;;;;;;;16.67;7.55;;;7.60;81.40;;;;;;5073453;28;20033;-73
2021/03/27 04:16:00;;;;;;;11.18;5.70;;;7.60;81.30;;;;;;5073659;28;20384;-73
2021/03/27 04:18:36;;;;;;;10.73;6.97;;;7.60;81.20;;;;;;5071969;28;20111;-73
2021/03/27 04:21:19;;;;;;;11.73;5.65;;;7.60;81.20;;;;;;5073292;28;20056;-73
2021/03/27 04:24:06;;;;;;;12.05;6.38;;;7.60;81.20;;;;;;5073445;28;20017;-73
2021/03/27 04:26:54;;;;;;;12.40;6.63;;;7.60;81.20;;;;;;5072001;28;20016;-73
2021/03/27 04:29:22;;;;;;;10.02;5.57;;;7.60;81.20;;;;;;5072025;28;20017;-73
2021/03/27 04:32:23;;;;;;;11.23;5.75;;;7.60;81.10;;;;;;5073394;28;20028;-73
2021/03/27 04:34:52;;;;;;;12.73;5.93;;;7.60;81.10;;;;;;5071915;28;20032;-73
2021/03/27 04:37:26;;;;;;;8.25;4.90;;;7.60;81.00;;;;;;5071991;28;20483;-73
2021/03/27 04:39:56;;;;;;;9.60;5.38;;;7.60;81.10;;;;;;5073153;28;20094;-73
2021/03/27 04:42:38;;;;;;;10.13;5.07;;;7.60;81.00;;;;;;5071858;28;20025;-73
2021/03/27 04:45:27;;;;;;;9.45;5.20;;;7.60;81.10;;;;;;5072037;28;20035;-73
2021/03/27 04:48:22;;;;;;;8.95;4.93;;;7.50;81.10;;;;;;5073232;28;20112;-73
2021/03/27 04:51:19;;;;;;;10.55;5.38;;;7.50;81.10;;;;;;5071880;28;20021;-73
2021/03/27 04:54:04;;;;;;;9.13;4.97;;;7.50;81.10;;;;;;5071990;28;20108;-73
2021/03/27 04:56:38;;;;;;;9.10;4.90;;;7.50;81.10;;;;;;5073100;28;20025;-73
2021/03/27 04:59:28;;;;;;;12.13;5.10;;;7.50;81.10;;;;;;5073411;28;20052;-73
2021/03/27 05:02:24;;;;;;;9.65;4.97;;;7.50;81.00;;;;;;5072957;28;20067;-75
2021/03/27 05:05:15;;;;;;;15.27;5.20;;;7.50;80.80;;;;;;5057425;28;20041;-73
2021/03/27 05:07:50;;;;;;;9.52;3.80;;;7.50;80.90;;;;;;5073289;28;20025;-73
2021/03/27 05:10:37;;;;;;;10.00;4.13;;;7.40;80.80;;;;;;5072788;28;20070;-73
2021/03/27 05:13:23;;;;;;;7.43;4.07;;;7.40;80.80;;;;;;5072815;28;20043;-73
2021/03/27 05:16:13;;;;;;;8.82;3.95;;;7.50;80.80;;;;;;5072922;28;20032;-73
2021/03/27 05:18:51;;;;;;;13.48;4.18;;;7.50;80.70;;;;;;5072758;28;20032;-73
2021/03/27 05:21:25;;;;;;;10.13;4.05;;;7.50;80.70;;;;;;5072583;28;20111;-73
2021/03/27 05:24:07;;;;;;;7.60;3.60;;;7.50;80.60;;;;;;5072802;28;20046;-73
2021/03/27 05:26:48;;;;;;;13.30;4.70;;;7.60;80.60;;;;;;5072701;28;20025;-73
2021/03/27 05:29:29;;;;;;;10.88;3.40;;;7.50;80.70;;;;;;5071309;28;20036;-73
2021/03/27 05:32:16;;;;;;;11.57;3.80;;;7.50;81.00;;;;;;5071319;28;20155;-73
2021/03/27 05:34:48;;;;;;;9.68;3.20;;;7.50;82.20;;;;;;5070693;28;20060;-73
2021/03/27 05:37:13;;;;;;;12.55;3.20;;;7.40;82.10;;;;;;5071075;28;20032;-73
2021/03/27 05:40:30;;;;;;;7.60;2.92;;;7.30;81.90;;;;;;5072357;28;20033;-73
2021/03/27 05:43:18;;;;;;;6.85;2.80;;;7.20;81.70;;;;;;5071422;28;20127;-73
2021/03/27 05:46:34;;;;;;;5.82;2.28;;;7.00;81.90;;;;;;5071341;28;20028;-73
2021/03/27 05:49:36;;;;;;;9.27;2.50;;;6.90;81.90;;;;;;5053466;28;20127;-73
2021/03/27 05:52:25;;;;;;;7.88;2.30;;;6.90;82.20;;;;;;5053349;28;20492;-73
2021/03/27 05:55:13;;;;;;;7.50;2.40;;;6.80;82.40;;;;;;5053435;28;20029;-73
2021/03/27 05:58:01;;;;;;;8.13;2.20;;;6.70;82.60;;;;;;5070308;28;20102;-73
2021/03/27 06:00:33;;;;;;;7.95;2.17;;;6.60;82.70;;;;;;5070102;28;20047;-73
2021/03/27 06:03:16;;;;;;;6.95;2.17;;;6.70;82.80;;;;;;5053256;28;20106;-73
2021/03/27 06:06:00;;;;;;;8.40;2.45;;;6.70;82.80;;;;;;5053360;28;20123;-73
2021/03/27 06:08:40;;;;;;;6.18;2.05;;;6.70;82.80;;;;;;5053496;28;20032;-73
2021/03/27 06:11:36;;;;;;;10.38;2.45;;;6.80;82.70;;;;;;5070384;28;20071;-73
2021/03/27 06:14:10;;;;;;;7.22;2.20;;;6.90;82.60;;;;;;5074027;28;20115;-73
2021/03/27 06:17:00;;;;;;;6.55;2.10;;;6.90;82.50;;;;;;5057189;28;20041;-73
2021/03/27 06:19:58;;;;;;;8.48;2.50;;;6.90;82.50;;;;;;5073737;28;20062;-73
2021/03/27 06:22:29;;;;;;;7.82;1.98;;;7.00;82.40;;;;;;5057027;28;20127;-73
2021/03/27 06:25:02;;;;;;;8.52;1.80;;;7.00;82.10;;;;;;5074550;28;20052;-73
2021/03/27 06:27:58;;;;;;;7.22;1.67;;;7.00;81.10;;;;;;5075704;28;20435;-73
2021/03/27 06:30:39;;;;;;;6.30;2.00;;;6.90;80.70;;;;;;5075591;28;20108;-73
2021/03/27 06:33:26;;;;;;;7.95;2.20;;;6.90;80.40;;;;;;5075729;28;20039;-73
2021/03/27 06:36:21;;;;;;;5.75;1.50;;;6.90;79.90;;;;;;5074273;28;20056;-73
2021/03/27 06:39:15;;;;;;;8.15;1.90;;;6.80;79.90;;;;;;5075104;28;20048;-72
2021/03/27 06:42:17;;;;;;;7.25;1.95;;;6.80;80.00;;;;;;5074030;28;20067;-72
2021/03/27 06:45:02;;;;;;;4.75;1.67;;;6.70;79.70;;;;;;5073980;28;20032;-72
2021/03/27 06:47:33;;;;;;;6.18;1.40;;;6.70;79.90;;;;;;5075187;28;20389;-72
2021/03/27 06:50:25;;;;;;;10.77;2.30;;;6.60;80.00;;;;;;5075263;28;20105;-72
2021/03/27 06:53:12;;;;;;;6.82;1.85;;;6.50;79.90;;;;;;5065742;28;20043;-72
2021/03/27 06:55:53;;;;;;;7.97;1.90;;;6.50;80.40;;;;;;5073818;28;20032;-72
2021/03/27 06:58:57;;;;;;;8.85;1.75;;;6.40;80.20;;;;;;5075127;28;20036;-72
2021/03/27 07:01:48;;;;;;;5.50;1.85;;;6.40;80.20;;;;;;5074885;28;20062;-72
2021/03/27 07:04:41;;;;;;;3.67;1.70;;;6.30;80.20;;;;;;5073579;28;20365;-72
2021/03/27 07:07:21;;;;;;;8.60;2.10;;;6.30;80.20;;;;;;5075299;28;20376;-72
2021/03/27 07:10:24;;;;;;;4.97;1.80;;;6.30;80.30;;;;;;5074780;28;20032;-72
2021/03/27 07:13:36;;;;;;;4.68;1.30;;;6.30;80.30;;;;;;5074742;28;20047;-72
2021/03/27 07:16:06;;;;;;;4.45;1.25;;;6.20;80.20;;;;;;5073505;28;20554;-73
2021/03/27 07:18:53;;;;;;;7.35;1.80;;;6.20;80.30;;;;;;5073216;28;20060;-72
2021/03/27 07:21:46;;;;;;;7.03;1.70;;;6.30;80.40;;;;;;5075085;28;20043;-72
2021/03/27 07:24:47;;;;;;;5.95;1.70;;;6.30;80.30;;;;;;5073055;28;20112;-72
2021/03/27 07:27:34;;;;;;;11.18;2.15;;;6.40;80.30;;;;;;5073962;28;20032;-72
2021/03/27 07:30:30;;;;;;;6.63;1.70;;;6.40;80.20;;;;;;5074329;28;20036;-72
2021/03/27 07:32:56;;;;;;;4.13;1.63;;;6.50;80.20;;;;;;5074595;28;20496;-72
2021/03/27 07:36:16;;;;;;;7.05;1.85;;;6.50;80.10;;;;;;5072890;28;20075;-72
2021/03/27 07:39:10;;;;;;;6.30;1.88;;;6.70;80.10;;;;;;5072652;28;20119;-72
2021/03/27 07:41:55;;;;;;;7.32;1.92;;;6.80;79.90;;;;;;5075183;28;20025;-72
2021/03/27 07:44:58;;;;;;;7.20;1.83;;;7.00;79.70;;;;;;5073810;28;20052;-73
2021/03/27 07:47:42;;;;;;;10.60;1.80;;;7.10;79.20;;;;;;5074022;28;20081;-72
2021/03/27 07:50:31;;;;;;;6.15;1.83;;;7.20;78.80;;;;;;5073821;28;20035;-72
2021/03/27 07:53:00;;;;;;;8.50;2.13;;;7.20;78.60;;;;;;5072534;28;20021;-72
2021/03/27 07:55:40;;;;;;;8.45;2.25;;;7.20;78.70;;;;;;5073732;28;20035;-72
2021/03/27 07:58:44;;;;;;;6.25;1.75;;;7.20;78.70;;;;;;5072489;28;20124;-72
2021/03/27 08:01:27;;;;;;;9.75;2.03;;;7.30;78.60;;;;;;5073682;28;20135;-73
2021/03/27 08:04:08;;;;;;;13.02;2.22;;;7.40;78.40;;;;;;5073719;28;20028;-73
2021/03/27 08:07:02;;;;;;;10.68;2.08;;;7.60;78.30;;;;;;5072302;28;20503;-73
2021/03/27 08:09:46;;;;;;;;;;;7.60;77.70;;;;;;5072687;28;20043;-73
2021/03/27 08:13:08;;;;;;;8.45;2.10;;;7.60;77.60;;;;;;5072499;28;19920;-73
2021/03/27 08:16:02;;;;;;;8.35;2.30;;;7.60;77.00;;;;;;5072388;28;20487;-72
2021/03/27 08:18:56;;;;;;;10.32;3.03;;;7.60;77.00;;;;;;5073371;28;20056;-72
2021/03/27 08:21:43;;;;;;;6.25;2.13;;;7.60;76.90;;;;;;5072112;28;20021;-72
2021/03/27 08:24:27;;;;;;;10.23;2.58;;;7.50;77.00;;;;;;5073790;28;20024;-73
2021/03/27 08:27:04;;;;;;;14.10;2.30;;;7.60;77.30;;;;;;5072134;28;20031;-74
2021/03/27 08:29:42;;;;;;;8.80;1.80;;;7.60;77.30;;;;;;5072162;28;20032;-74
2021/03/27 08:32:49;;;;;;;9.57;1.90;;;7.60;77.40;;;;;;5072296;28;20032;-74
2021/03/27 08:36:01;;;;;;;9.00;2.00;;;7.70;77.50;;;;;;5071258;28;20041;-73
2021/03/27 08:39:04;;;;;;;10.60;2.05;;;7.70;77.40;;;;;;5070702;28;20373;-74
2021/03/27 08:41:47;;;;;;;8.20;1.88;;;7.80;77.30;;;;;;5071742;28;20041;-74
2021/03/27 08:44:15;;;;;;;10.23;2.00;;;7.60;76.60;;;;;;5073192;28;20476;-74
2021/03/27 08:46:50;;;;;;;9.90;2.03;;;7.50;75.90;;;;;;5071814;28;20332;-74
2021/03/27 08:49:28;;;;;;;5.63;1.73;;;7.40;75.70;;;;;;5071863;28;20020;-74
2021/03/27 08:52:14;;;;;;;7.65;1.90;;;7.30;74.90;;;;;;5071619;28;20044;-74
2021/03/27 08:55:07;;;;;;;4.45;1.70;;;7.30;75.40;;;;;;5067807;28;20040;-74
2021/03/27 08:58:02;;;;;;;5.75;1.73;;;7.40;75.10;;;;;;5073163;28;20058;-72
2021/03/27 09:01:03;;;;;;;6.55;1.35;;;7.50;74.40;;;;;;5072747;28;20094;-72
2021/03/27 09:04:07;;;;;;;2.85;1.23;;;7.60;74.50;;;;;;5072710;28;20052;-73
2021/03/27 09:06:44;;;;;;;7.22;1.50;;;7.60;74.20;;;;;;5072864;28;20032;-73
2021/03/27 09:09:28;;;;;;;7.88;1.63;;;7.50;74.20;;;;;;5072911;28;20033;-73
2021/03/27 09:12:27;;;;;;;4.35;1.20;;;7.50;74.40;;;;;;5073141;28;20036;-74
2021/03/27 09:15:19;;;;;;;7.07;1.50;;;7.30;74.80;;;;;;5073126;28;20476;-73
2021/03/27 09:17:47;;;;;;;7.78;2.33;;;7.20;75.20;;;;;;5071775;28;20029;-74
2021/03/27 09:20:32;;;;;;;8.80;2.50;;;7.10;75.80;;;;;;5072848;28;20098;-74
2021/03/27 09:23:07;;;;;;;9.07;2.38;;;7.00;76.40;;;;;;5072998;28;20035;-73
2021/03/27 09:25:35;;;;;;;9.73;2.08;;;7.00;76.90;;;;;;5071367;28;20059;-73
2021/03/27 09:28:25;;;;;;;10.75;2.33;;;7.00;77.10;;;;;;5072842;28;20036;-73
2021/03/27 09:31:28;;;;;;;8.43;2.08;;;7.00;77.40;;;;;;5071468;28;20024;-73
2021/03/27 09:34:31;;;;;;;7.90;2.20;;;7.30;77.80;;;;;;5072647;28;20033;-73
2021/03/27 09:37:09;;;;;;;7.80;2.03;;;7.40;76.70;;;;;;5071187;28;20082;-73
2021/03/27 09:40:09;;;;;;;11.48;2.20;;;7.50;75.80;;;;;;5071308;28;20048;-74
2021/03/27 09:43:04;;;;;;;11.40;2.50;;;7.60;74.90;;;;;;5070812;28;20082;-74
2021/03/27 09:45:51;;;;;;;8.60;2.00;;;7.80;74.60;;;;;;5072524;28;20086;-74
2021/03/27 09:48:47;;;;;;;10.90;2.10;;;7.90;74.60;;;;;;5074313;28;20078;-73
2021/03/27 09:51:33;;;;;;;10.20;1.95;;;8.20;74.60;;;;;;5076334;28;20029;-73
2021/03/27 09:54:07;;;;;;;8.85;2.45;;;8.30;74.10;;;;;;5075050;28;20557;-73
2021/03/27 09:56:37;;;;;;;11.25;2.50;;;8.50;73.40;;;;;;5075474;28;20024;-74
2021/03/27 09:59:21;;;;;;;11.50;2.55;;;8.50;73.10;;;;;;5076367;28;20074;-73
2021/03/27 10:01:58;;;;;;;12.75;2.72;;;8.50;72.60;;;;;;5075523;28;20481;-73
2021/03/27 10:04:32;;;;;;;8.63;2.08;;;8.40;72.90;;;;;;5074988;28;20393;-73
2021/03/27 10:07:19;;;;;;;8.25;1.95;;;8.30;72.60;;;;;;5074868;28;20494;-73
2021/03/27 10:10:15;;;;;;;10.20;2.30;;;8.20;71.70;;;;;;5074859;28;20036;-74
2021/03/27 10:12:44;;;;;;;11.43;2.30;;;8.20;71.80;;;;;;5076487;28;20033;-75
2021/03/27 10:15:20;;;;;;;8.30;1.90;;;8.30;69.60;;;;;;5074459;28;20056;-74
2021/03/27 10:17:54;;;;;;;9.85;1.73;;;8.30;69.30;;;;;;5076448;28;20028;-74
2021/03/27 10:20:31;;;;;;;5.30;1.55;;;8.50;68.80;;;;;;5075853;28;20107;-74
2021/03/27 10:23:21;;;;;;;8.07;2.25;;;8.60;69.10;;;;;;5075783;28;20039;-73
2021/03/27 10:26:25;;;;;;;10.20;2.00;;;8.70;67.20;;;;;;5074434;28;20078;-74
2021/03/27 10:29:07;;;;;;;7.55;1.90;;;8.70;66.20;;;;;;5074343;28;20051;-74
2021/03/27 10:31:43;;;;;;;6.93;1.92;;;8.70;64.60;;;;;;5075602;28;20025;-75
2021/03/27 10:34:38;;;;;;;10.27;2.20;;;8.70;60.70;;;;;;5074795;28;20028;-74
2021/03/27 10:37:08;;;;;;;5.40;1.95;;;8.60;58.90;;;;;;5074690;28;20111;-74
2021/03/27 10:39:52;;;;;;;9.02;1.75;;;8.50;60.10;;;;;;5075193;28;20158;-74
2021/03/27 10:42:20;;;;;;;7.35;1.80;;;8.50;59.40;;;;;;5075388;28;20033;-73
2021/03/27 10:45:10;;;;;;;7.45;1.55;;;8.50;58.50;;;;;;5074006;28;20035;-74
2021/03/27 10:48:06;;;;;;;8.05;1.60;;;8.60;59.20;;;;;;5074007;28;20085;-74
2021/03/27 10:50:42;;;;;;;7.68;1.70;;;8.70;59.40;;;;;;5073619;28;20040;-74
2021/03/27 10:53:30;;;;;;;7.40;1.90;;;8.70;59.20;;;;;;5073663;28;20025;-74
2021/03/27 10:56:11;;;;;;;6.20;1.83;;;8.90;59.60;;;;;;5075271;28;20135;-74
2021/03/27 10:58:58;;;;;;;10.50;1.63;;;9.10;59.50;;;;;;5073207;28;20043;-74
2021/03/27 11:01:46;;;;;;;5.22;1.35;;;9.30;57.90;;;;;;5073678;28;20035;-75
2021/03/27 11:04:39;;;;;;;7.82;1.42;;;9.40;58.00;;;;;;5074936;28;20032;-74
2021/03/27 11:07:35;;;;;;;9.17;1.70;;;9.60;56.10;;;;;;5073577;28;20024;-74
2021/03/27 11:10:23;;;;;;;12.38;2.22;;;9.60;55.00;;;;;;5074820;28;20028;-74
2021/03/27 11:13:33;;;;;;;9.32;1.75;;;9.60;54.60;;;;;;5074709;28;20119;-75
2021/03/27 11:16:30;;;;;;;5.22;1.60;;;9.40;54.30;;;;;;5072079;28;20032;-74
2021/03/27 11:19:19;;;;;;;7.43;2.28;;;9.30;55.60;;;;;;5074655;28;20115;-74
2021/03/27 11:22:06;;;;;;;5.10;2.15;;;9.30;55.50;;;;;;5073328;28;20067;-74
2021/03/27 11:24:58;;;;;;;6.00;1.58;;;9.40;55.30;;;;;;5074337;28;20070;-74
2021/03/27 11:27:47;;;;;;;9.52;1.80;;;9.40;55.20;;;;;;5072935;28;20392;-74
2021/03/27 11:30:20;;;;;;;6.22;1.50;;;9.40;55.80;;;;;;5069866;28;20396;-74
2021/03/27 11:33:02;;;;;;;8.48;1.80;;;9.50;55.50;;;;;;5072981;28;20069;-74
2021/03/27 11:35:35;;;;;;;5.65;1.85;;;9.50;55.20;;;;;;5072811;28;20520;-74
2021/03/27 11:38:28;;;;;;;8.33;1.97;;;9.60;54.80;;;;;;5072921;28;20029;-73
2021/03/27 11:41:21;;;;;;;10.07;1.77;;;9.60;54.90;;;;;;5074080;28;20033;-74
2021/03/27 11:43:59;;;;;;;10.68;2.28;;;9.50;55.10;;;;;;5072916;28;20044;-74
2021/03/27 11:46:37;;;;;;;6.88;1.67;;;9.40;54.80;;;;;;5072875;28;20027;-73
2021/03/27 11:49:25;;;;;;;8.05;2.22;;;9.20;56.00;;;;;;5072895;28;20028;-74
2021/03/27 11:52:06;;;;;;;6.45;1.77;;;9.10;56.70;;;;;;5073881;28;20028;-74
2021/03/27 11:54:53;;;;;;;8.30;1.70;;;9.00;58.20;;;;;;5072659;28;20039;-73
2021/03/27 11:57:33;;;;;;;8.35;1.88;;;8.70;61.00;;;;;;5073956;28;20111;-74
2021/03/27 12:03:13;;;;;;;9.73;1.95;;;8.40;63.60;;;;;;5074121;28;20071;-73
2021/03/27 12:05:56;;;;;;;9.07;2.17;;;8.30;64.70;;;;;;5074085;28;20024;-73
2021/03/27 12:08:34;;;;;;;8.07;1.83;;;8.30;64.60;;;;;;5072258;28;20094;-73
2021/03/27 12:11:02;;;;;;;6.38;1.88;;;8.20;64.60;;;;;;5073021;28;20086;-73
2021/03/27 12:13:43;;;;;;;7.20;2.10;;;8.30;65.00;;;;;;5073551;28;20503;-73
2021/03/27 12:16:34;;;;;;;7.38;2.00;;;8.40;64.60;;;;;;5072376;28;20028;-73
2021/03/27 12:19:15;;;;;;;7.60;1.83;;;8.50;64.00;;;;;;5073505;28;20119;-74
2021/03/27 12:21:45;;;;;;;8.63;1.52;;;8.70;63.40;;;;;;5073863;28;20060;-73
2021/03/27 12:24:19;;;;;;;9.50;1.83;;;8.80;63.50;;;;;;5071813;28;20031;-74
2021/03/27 12:26:52;;;;;;;9.23;2.70;;;8.70;63.40;;;;;;5073289;28;20025;-73
2021/03/27 12:29:21;;;;;;;10.68;2.00;;;8.60;63.40;;;;;;5073274;28;20564;-73
2021/03/27 12:32:09;;;;;;;11.15;1.90;;;8.40;65.40;;;;;;5072081;28;20041;-74
2021/03/27 12:34:46;;;;;;;9.85;1.70;;;8.00;67.80;;;;;;5073099;28;20028;-74
2021/03/27 12:37:28;;;;;;;6.50;1.73;;;7.60;69.50;;;;;;5073432;28;20036;-74
2021/03/27 12:40:22;;;;;;;7.00;1.45;;;7.40;70.90;;;;;;5071778;28;20044;-74
2021/03/27 12:42:56;;;;;;;6.22;2.00;;;7.40;71.60;;;;;;5071997;28;20036;-74
2021/03/27 12:45:27;;;;;;;9.05;2.20;;;7.50;72.40;;;;;;5071714;28;20028;-74
2021/03/27 12:48:17;;;;;;;11.90;2.85;;;7.50;72.70;;;;;;5071714;28;20059;-73
2021/03/27 12:51:09;;;;;;;11.10;2.20;;;7.60;72.80;;;;;;5071893;28;20487;-74
2021/03/27 12:54:02;;;;;;;8.15;2.17;;;7.70;72.70;;;;;;5073084;28;20089;-74
2021/03/27 12:56:35;;;;;;;16.48;3.20;;;7.80;72.70;;;;;;5072863;28;20492;-74
2021/03/27 12:59:21;;;;;;;9.25;1.80;;;7.90;72.10;;;;;;5071744;28;20080;-74
2021/03/27 13:02:17;;;;;;;10.57;2.72;;;7.90;72.10;;;;;;5072818;28;20032;-74
2021/03/27 13:05:09;;;;;;;8.38;2.13;;;8.00;70.80;;;;;;5071575;28;20094;-74
2021/03/27 13:08:12;;;;;;;10.68;2.35;;;8.00;70.40;;;;;;5071289;28;20464;-74
2021/03/27 13:11:03;;;;;;;10.43;2.50;;;8.00;69.70;;;;;;5072573;28;20028;-73
2021/03/27 13:13:51;;;;;;;10.20;2.47;;;8.00;69.80;;;;;;5071966;28;20118;-73
2021/03/27 13:16:25;;;;;;;9.85;2.10;;;8.10;69.60;;;;;;5071748;28;20491;-73
2021/03/27 13:18:56;;;;;;;10.02;2.97;;;8.10;68.60;;;;;;5072698;28;20082;-74
2021/03/27 13:21:22;;;;;;;11.95;2.45;;;8.20;68.00;;;;;;5073415;28;20504;-73
2021/03/27 13:23:47;;;;;;;7.90;1.98;;;8.30;67.80;;;;;;5076987;28;20091;-73
2021/03/27 13:26:27;;;;;;;8.55;1.92;;;8.50;68.00;;;;;;5076892;28;20031;-73
2021/03/27 13:29:01;;;;;;;13.48;2.30;;;8.70;66.90;;;;;;5075317;28;20024;-73
2021/03/27 13:31:40;;;;;;;9.07;2.30;;;8.80;66.70;;;;;;5075364;28;20025;-74
2021/03/27 13:34:44;;;;;;;10.57;2.42;;;9.00;66.50;;;;;;5076968;28;20056;-73
2021/03/27 13:37:25;;;;;;;11.98;2.60;;;9.30;66.80;;;;;;5075965;28;20123;-73
2021/03/27 13:40:17;;;;;;;9.65;3.10;;;9.60;65.30;;;;;;5076151;28;20115;-73
2021/03/27 13:43:06;;;;;;;7.95;2.15;;;9.70;64.90;;;;;;5076032;28;20021;-73
2021/03/27 13:45:55;;;;;;;13.98;2.75;;;9.90;63.20;;;;;;5076542;28;20036;-71
2021/03/27 13:48:29;;;;;;;9.50;2.03;;;10.10;62.80;;;;;;5076392;28;20040;-73
2021/03/27 13:51:27;;;;;;;6.25;1.70;;;10.20;61.90;;;;;;5076272;28;20503;-74
2021/03/27 13:54:09;;;;;;;7.65;1.95;;;10.30;60.80;;;;;;5070292;28;20033;-73
2021/03/27 13:56:40;;;;;;;12.50;2.60;;;10.10;59.80;;;;;;5076764;28;20044;-74
2021/03/27 13:59:18;;;;;;;8.75;2.00;;;10.00;58.00;;;;;;5075857;28;20036;-74
2021/03/27 14:02:16;;;;;;;6.57;2.20;;;9.80;59.80;;;;;;5074676;28;20090;-73
2021/03/27 14:04:52;;;;;;;7.85;1.77;;;9.70;59.40;;;;;;5074661;28;20041;-73
2021/03/27 14:07:34;;;;;;;10.90;2.40;;;9.60;59.60;;;;;;5074812;28;20028;-72
2021/03/27 14:10:26;;;;;;;6.43;2.05;;;9.60;59.90;;;;;;5074513;28;20029;-73
2021/03/27 14:13:19;;;;;;;13.27;2.70;;;9.60;59.70;;;;;;5073656;28;20047;-73
2021/03/27 14:16:00;;;;;;;9.48;2.20;;;9.60;59.70;;;;;;5075768;28;20100;-73
2021/03/27 14:18:56;;;;;;;9.68;1.95;;;9.60;60.90;;;;;;5074495;28;20029;-74
2021/03/27 14:21:22;;;;;;;7.95;1.98;;;9.60;60.90;;;;;;5075651;28;20044;-74
2021/03/27 14:24:13;;;;;;;14.05;2.28;;;9.70;60.00;;;;;;5075286;28;20477;-72
2021/03/27 14:30:13;;;;;;;8.82;2.40;;;9.90;58.80;;;;;;5075941;28;20039;-74